Time;durP1;ratioP1;P1;durP2;ratioP2;P2;SDS_P1;SDS_P2;PMS_P1;PMS_P2;Temp;Humidity;BMP_temperature;BMP_pressure;BME280_temperature;BME280_humidity;BME280_pressure;Samples;Min_cycle;Max_cycle;Signal;HPM_P1;HPM_P2
2022/05/25 00:04:09;;;;;;;9.47;4.23;;;15.20;68.10;;;;;;5050013;28;20207;-89
2022/05/25 00:06:37;;;;;;;11.80;3.70;;;15.20;68.80;;;;;;5045608;28;20205;-89
2022/05/25 00:09:08;;;;;;;11.87;4.63;;;15.20;68.20;;;;;;5049339;28;20588;-89
2022/05/25 00:11:41;;;;;;;13.20;4.40;;;15.20;68.70;;;;;;5046262;28;20277;-89
2022/05/25 00:14:11;;;;;;;14.93;5.00;;;15.20;69.10;;;;;;5044929;28;20216;-90
2022/05/25 00:16:42;;;;;;;11.17;4.20;;;15.20;68.80;;;;;;5047102;28;20223;-89
2022/05/25 00:21:57;;;;;;;10.77;4.27;;;15.10;68.70;;;;;;5049530;28;20294;-89
2022/05/25 00:24:26;;;;;;;13.10;4.47;;;15.10;69.00;;;;;;5047173;28;20237;-91
2022/05/25 00:27:01;;;;;;;15.33;5.27;;;15.00;68.90;;;;;;5048722;28;20198;-90
2022/05/25 00:29:31;;;;;;;13.30;4.43;;;15.00;69.70;;;;;;5055960;28;20241;-90
2022/05/25 00:32:03;;;;;;;12.73;4.37;;;15.00;69.40;;;;;;5055260;28;20208;-90
2022/05/25 00:34:31;;;;;;;18.87;5.97;;;15.00;69.70;;;;;;5056681;28;20223;-90
2022/05/25 00:36:59;;;;;;;9.13;3.13;;;15.00;69.50;;;;;;5055089;28;20626;-88
2022/05/25 00:39:27;;;;;;;13.37;4.60;;;15.00;69.70;;;;;;5052597;28;20250;-90
2022/05/25 00:41:55;;;;;;;8.97;3.43;;;14.90;69.70;;;;;;5052003;28;20207;-90
2022/05/25 00:44:27;;;;;;;10.77;4.87;;;14.90;69.90;;;;;;5051427;28;20268;-90
2022/05/25 00:46:55;;;;;;;13.57;5.03;;;14.90;70.30;;;;;;5056599;28;20245;-89
2022/05/25 00:49:25;;;;;;;13.33;4.30;;;14.90;70.40;;;;;;5052912;28;20272;-89
2022/05/25 00:51:59;;;;;;;13.53;4.97;;;14.80;70.70;;;;;;5052592;28;20790;-89
2022/05/25 00:54:30;;;;;;;11.00;4.43;;;14.80;70.90;;;;;;5055869;28;20218;-89
2022/05/25 00:57:03;;;;;;;12.80;4.93;;;14.80;70.80;;;;;;5054744;28;20266;-89
2022/05/25 00:59:39;;;;;;;14.50;5.40;;;14.80;71.20;;;;;;5056163;28;20203;-90
2022/05/25 01:02:06;;;;;;;9.07;4.07;;;14.70;71.30;;;;;;5058115;28;20261;-89
2022/05/25 01:04:33;;;;;;;12.00;4.63;;;14.70;70.80;;;;;;5057159;28;20200;-90
2022/05/25 01:07:25;;;;;;;10.17;5.00;;;14.70;72.00;;;;;;5054747;28;20238;-89
2022/05/25 01:10:04;;;;;;;10.23;4.33;;;14.70;72.30;;;;;;5058585;28;20215;-90
2022/05/25 01:12:52;;;;;;;13.27;5.40;;;14.70;72.20;;;;;;5058267;28;20208;-90
2022/05/25 01:15:31;;;;;;;11.00;5.07;;;14.60;72.40;;;;;;5059625;28;20208;-90
2022/05/25 01:18:12;;;;;;;12.47;5.00;;;14.60;72.20;;;;;;5060384;28;20206;-90
2022/05/25 01:20:49;;;;;;;12.17;5.50;;;14.60;72.20;;;;;;5063604;28;20207;-88
2022/05/25 01:23:51;;;;;;;11.83;5.50;;;14.50;72.40;;;;;;5065259;28;20639;-88
2022/05/25 01:26:49;;;;;;;12.37;4.87;;;14.50;73.10;;;;;;5018753;28;20210;-90
2022/05/25 01:30:07;;;;;;;11.00;5.23;;;14.50;73.00;;;;;;5056044;28;20202;-90
2022/05/25 01:32:48;;;;;;;11.47;5.53;;;14.50;73.50;;;;;;5027827;28;20207;-89
2022/05/25 01:35:32;;;;;;;20.23;7.10;;;14.50;73.00;;;;;;5045940;28;20260;-89
2022/05/25 01:38:11;;;;;;;11.13;5.37;;;14.50;73.20;;;;;;5052972;28;20213;-91
2022/05/25 01:40:50;;;;;;;13.70;5.70;;;14.40;72.70;;;;;;5054702;28;20252;-90
2022/05/25 01:43:24;;;;;;;11.47;5.20;;;14.40;73.00;;;;;;5056904;28;20344;-90
2022/05/25 01:45:59;;;;;;;9.87;5.40;;;14.40;73.10;;;;;;5056196;28;20209;-90
2022/05/25 01:48:28;;;;;;;17.30;6.60;;;14.40;73.00;;;;;;5055118;28;20551;-90
2022/05/25 01:51:02;;;;;;;12.67;5.63;;;14.40;73.50;;;;;;5056150;28;20239;-91
2022/05/25 01:53:39;;;;;;;14.30;6.33;;;14.40;73.70;;;;;;5053166;28;20261;-90
2022/05/25 01:56:09;;;;;;;18.00;6.47;;;14.40;73.80;;;;;;5053707;28;20569;-90
2022/05/25 01:58:40;;;;;;;10.57;4.93;;;14.40;73.60;;;;;;5056206;28;20227;-89
2022/05/25 02:01:12;;;;;;;17.63;7.77;;;14.30;73.50;;;;;;5057175;28;20259;-90
2022/05/25 02:06:55;;;;;;;12.63;6.33;;;14.30;73.30;;;;;;5051433;28;20214;-90
2022/05/25 02:09:49;;;;;;;11.93;6.10;;;14.30;74.50;;;;;;5044398;28;20236;-89
2022/05/25 02:12:34;;;;;;;13.90;6.43;;;14.30;74.50;;;;;;5058154;28;20210;-91
2022/05/25 02:15:12;;;;;;;9.83;5.63;;;14.30;74.50;;;;;;5057801;28;20230;-89
2022/05/25 02:17:49;;;;;;;11.77;5.60;;;14.30;74.40;;;;;;5057688;28;20608;-90
2022/05/25 02:20:32;;;;;;;10.20;6.00;;;14.20;74.40;;;;;;5056531;28;20209;-91
2022/05/25 02:23:03;;;;;;;14.03;6.17;;;14.20;74.40;;;;;;5055741;28;20214;-90
2022/05/25 02:25:38;;;;;;;9.93;5.33;;;14.20;74.40;;;;;;5066601;28;20783;-90
2022/05/25 02:28:25;;;;;;;11.33;5.10;;;14.20;74.40;;;;;;5053748;28;20298;-91
2022/05/25 02:30:59;;;;;;;8.50;5.17;;;14.10;75.00;;;;;;5061578;28;20214;-90
2022/05/25 02:33:39;;;;;;;10.57;5.37;;;14.20;74.70;;;;;;5066240;28;20203;-90
2022/05/25 02:36:09;;;;;;;9.67;5.30;;;14.10;74.90;;;;;;5065668;28;20224;-88
2022/05/25 02:38:48;;;;;;;15.50;6.37;;;14.10;74.40;;;;;;5067632;28;20232;-91
2022/05/25 02:41:27;;;;;;;12.70;5.10;;;14.20;75.20;;;;;;5059146;28;20208;-90
2022/05/25 02:44:00;;;;;;;9.07;4.43;;;14.10;75.40;;;;;;5049459;28;20213;-89
2022/05/25 02:46:34;;;;;;;15.70;6.40;;;14.10;75.20;;;;;;5060362;28;20186;-88
2022/05/25 02:49:04;;;;;;;9.47;4.90;;;14.10;75.50;;;;;;5070143;28;20198;-86
2022/05/25 02:51:32;;;;;;;9.40;5.20;;;14.10;75.40;;;;;;5069795;28;20304;-89
2022/05/25 02:54:08;;;;;;;10.83;5.63;;;14.10;75.30;;;;;;5070612;28;20224;-90
2022/05/25 02:56:38;;;;;;;17.33;6.77;;;14.00;75.70;;;;;;5054704;28;20227;-89
2022/05/25 02:59:06;;;;;;;7.43;5.03;;;14.00;75.80;;;;;;5071271;28;20211;-89
2022/05/25 03:01:35;;;;;;;15.53;7.20;;;14.00;75.60;;;;;;5059731;28;20214;-89
2022/05/25 03:04:05;;;;;;;9.30;4.93;;;14.00;75.80;;;;;;5055865;28;20196;-89
2022/05/25 03:06:33;;;;;;;9.23;5.23;;;14.00;76.20;;;;;;5059310;28;20210;-90
2022/05/25 03:09:01;;;;;;;7.60;4.70;;;14.00;76.10;;;;;;5060393;28;20205;-89
2022/05/25 03:11:29;;;;;;;8.63;5.13;;;13.90;76.40;;;;;;5058781;28;20245;-89
2022/05/25 03:13:57;;;;;;;8.57;5.27;;;13.90;76.20;;;;;;5060479;28;20225;-90
2022/05/25 03:16:30;;;;;;;10.80;5.23;;;13.90;76.70;;;;;;5060069;28;20233;-90
2022/05/25 03:19:00;;;;;;;13.77;5.73;;;13.90;77.10;;;;;;5060191;28;20211;-90
2022/05/25 03:21:31;;;;;;;13.70;6.43;;;13.90;76.90;;;;;;5057639;28;20202;-90
2022/05/25 03:23:58;;;;;;;11.07;5.90;;;13.90;77.10;;;;;;5060999;28;20270;-90
2022/05/25 03:26:26;;;;;;;11.07;5.70;;;13.90;76.50;;;;;;5065575;28;20214;-90
2022/05/25 03:28:55;;;;;;;6.50;4.73;;;13.90;76.70;;;;;;5064032;28;20631;-91
2022/05/25 03:31:27;;;;;;;13.63;5.63;;;13.90;77.00;;;;;;5058475;28;20240;-91
2022/05/25 03:33:58;;;;;;;11.97;6.03;;;13.90;77.40;;;;;;5047428;28;20558;-90
2022/05/25 03:36:25;;;;;;;10.20;6.17;;;13.90;77.20;;;;;;5060301;28;20229;-90
2022/05/25 03:38:53;;;;;;;11.70;6.27;;;13.80;76.70;;;;;;5067442;28;20450;-90
2022/05/25 03:41:23;;;;;;;16.23;6.67;;;13.80;77.10;;;;;;5059468;28;21283;-90
2022/05/25 03:43:52;;;;;;;12.57;5.90;;;13.80;77.20;;;;;;5052371;28;20200;-91
2022/05/25 03:46:19;;;;;;;13.03;5.57;;;13.80;77.30;;;;;;5052081;28;20201;-90
2022/05/25 03:48:47;;;;;;;14.07;5.10;;;13.80;77.20;;;;;;5055712;28;20697;-90
2022/05/25 03:51:14;;;;;;;12.17;6.03;;;13.80;77.20;;;;;;5055223;28;20201;-90
2022/05/25 03:53:43;;;;;;;12.47;6.00;;;13.80;77.10;;;;;;5054471;28;20208;-91
2022/05/25 03:56:14;;;;;;;12.27;6.70;;;13.80;77.80;;;;;;5052194;28;20565;-91
2022/05/25 03:58:41;;;;;;;14.60;6.33;;;13.80;78.10;;;;;;5051790;28;20247;-90
2022/05/25 04:01:10;;;;;;;15.60;5.93;;;13.80;77.50;;;;;;5059102;28;20266;-89
2022/05/25 04:03:37;;;;;;;9.93;5.70;;;13.80;77.60;;;;;;5058896;28;20210;-90
2022/05/25 04:06:06;;;;;;;13.70;6.00;;;13.80;77.70;;;;;;5059913;28;20202;-90
2022/05/25 04:08:35;;;;;;;21.50;7.50;;;13.80;78.20;;;;;;5059418;28;20218;-91
2022/05/25 04:11:05;;;;;;;11.13;5.83;;;13.80;78.80;;;;;;5061474;28;20204;-90
2022/05/25 04:13:34;;;;;;;9.43;5.63;;;13.70;78.40;;;;;;5060147;28;20208;-90
2022/05/25 04:16:01;;;;;;;16.67;6.13;;;13.70;78.70;;;;;;5058953;28;20228;-90
2022/05/25 04:18:29;;;;;;;13.63;5.90;;;13.70;78.40;;;;;;5055546;28;20213;-90
2022/05/25 04:20:56;;;;;;;15.57;6.97;;;13.70;78.80;;;;;;5058220;28;20274;-91
2022/05/25 04:23:26;;;;;;;16.47;6.90;;;13.70;78.60;;;;;;5054259;28;20207;-91
2022/05/25 04:25:54;;;;;;;8.57;4.77;;;13.70;78.90;;;;;;5063537;28;20215;-90
2022/05/25 04:28:22;;;;;;;12.20;5.57;;;13.70;79.10;;;;;;5060759;28;20212;-91
2022/05/25 04:30:54;;;;;;;10.47;5.37;;;13.70;79.50;;;;;;5061435;28;20703;-91
2022/05/25 04:33:29;;;;;;;14.80;6.20;;;13.70;80.10;;;;;;5064929;28;20206;-92
2022/05/25 04:35:56;;;;;;;13.53;6.30;;;13.60;80.40;;;;;;5061081;28;20320;-91
2022/05/25 04:38:24;;;;;;;15.47;5.67;;;13.70;79.90;;;;;;5047478;28;20271;-92
2022/05/25 04:40:54;;;;;;;18.13;6.80;;;13.70;79.90;;;;;;5041534;28;20301;-90
2022/05/25 04:43:28;;;;;;;16.40;6.63;;;13.70;80.00;;;;;;5057851;28;20571;-92
2022/05/25 04:45:59;;;;;;;11.90;6.17;;;13.70;81.20;;;;;;5059353;28;20273;-91
2022/05/25 04:48:29;;;;;;;13.33;5.87;;;13.70;81.10;;;;;;5059452;28;20719;-91
2022/05/25 04:51:02;;;;;;;15.63;6.37;;;13.70;81.10;;;;;;5050218;28;20199;-92
2022/05/25 04:53:32;;;;;;;13.67;6.23;;;13.80;82.10;;;;;;5061325;28;20205;-90
2022/05/25 04:58:47;;;;;;;14.40;7.20;;;13.80;82.30;;;;;;5059328;28;20205;-90
2022/05/25 05:01:19;;;;;;;29.70;9.63;;;13.80;83.10;;;;;;5054964;28;20279;-90
2022/05/25 05:03:47;;;;;;;16.03;6.47;;;13.80;83.20;;;;;;5052905;28;20214;-91
2022/05/25 05:06:14;;;;;;;10.67;6.43;;;13.80;83.10;;;;;;5053311;28;20682;-89
2022/05/25 05:08:41;;;;;;;13.73;6.73;;;13.90;83.10;;;;;;5053257;28;20218;-89
2022/05/25 05:11:10;;;;;;;12.57;7.20;;;13.90;83.20;;;;;;5052973;28;20678;-88
2022/05/25 05:13:37;;;;;;;11.10;6.00;;;13.90;84.00;;;;;;5061230;28;20207;-90
2022/05/25 05:16:09;;;;;;;13.27;6.97;;;14.00;84.00;;;;;;5059229;28;20626;-89
2022/05/25 05:18:37;;;;;;;17.87;7.77;;;14.00;84.70;;;;;;5052527;28;20255;-89
2022/05/25 05:21:05;;;;;;;16.87;7.07;;;14.10;84.70;;;;;;5054889;28;20211;-90
2022/05/25 05:23:32;;;;;;;14.63;6.87;;;14.10;84.30;;;;;;5033513;28;20210;-89
2022/05/25 05:26:00;;;;;;;13.60;6.93;;;14.10;84.20;;;;;;5036238;28;20261;-92
2022/05/25 05:28:31;;;;;;;12.73;7.40;;;14.20;84.70;;;;;;5038116;28;20252;-90
2022/05/25 05:31:02;;;;;;;14.40;7.20;;;14.20;85.50;;;;;;5058333;28;20306;-91
2022/05/25 05:33:30;;;;;;;15.20;6.40;;;14.20;85.10;;;;;;5053959;28;20204;-90
2022/05/25 05:36:06;;;;;;;21.50;8.47;;;14.30;85.40;;;;;;5053582;28;20238;-89
2022/05/25 05:38:40;;;;;;;22.93;9.00;;;14.30;86.50;;;;;;5053369;28;20210;-90
2022/05/25 05:41:07;;;;;;;15.30;6.47;;;14.40;86.40;;;;;;5052516;28;20217;-89
2022/05/25 05:43:42;;;;;;;12.57;5.77;;;14.50;86.10;;;;;;5054048;28;20231;-92
2022/05/25 05:46:10;;;;;;;15.80;7.03;;;14.50;87.50;;;;;;5052168;28;20290;-90
2022/05/25 05:48:43;;;;;;;18.33;7.70;;;14.50;86.90;;;;;;5050068;28;20285;-92
2022/05/25 05:51:13;;;;;;;15.87;6.57;;;14.60;87.60;;;;;;5035391;28;20196;-90
2022/05/25 05:53:42;;;;;;;21.90;7.80;;;14.60;87.30;;;;;;5036626;28;20727;-95
2022/05/25 05:56:11;;;;;;;13.47;6.30;;;14.70;86.90;;;;;;5063041;28;20249;-96
2022/05/25 05:58:39;;;;;;;10.57;5.00;;;14.80;86.90;;;;;;5061066;28;20240;-96
2022/05/25 06:01:10;;;;;;;10.97;5.70;;;14.80;87.20;;;;;;5067144;28;20216;-96
2022/05/25 06:03:39;;;;;;;10.97;4.90;;;14.90;87.30;;;;;;5070803;28;20414;-95
2022/05/25 06:06:06;;;;;;;10.47;4.83;;;14.90;87.00;;;;;;5066847;28;20222;-94
2022/05/25 06:08:37;;;;;;;13.83;5.70;;;15.00;86.70;;;;;;5061357;28;20196;-92
2022/05/25 06:11:05;;;;;;;12.63;5.63;;;15.10;87.60;;;;;;5039165;28;20204;-92
2022/05/25 06:13:32;;;;;;;16.17;6.57;;;15.10;87.60;;;;;;5045519;28;20276;-94
2022/05/25 06:21:30;;;;;;;10.47;5.57;;;15.30;86.40;;;;;;5056963;28;20326;-91
2022/05/25 06:23:59;;;;;;;12.73;5.87;;;15.40;86.40;;;;;;5057945;28;20243;-89
2022/05/25 06:26:30;;;;;;;14.90;6.33;;;15.40;86.10;;;;;;5058521;28;20204;-91
2022/05/25 06:28:57;;;;;;;19.87;7.60;;;15.40;85.60;;;;;;5052869;28;20265;-90
2022/05/25 06:31:27;;;;;;;16.07;6.07;;;15.50;85.80;;;;;;5058068;28;20200;-91
2022/05/25 06:33:55;;;;;;;14.03;5.90;;;15.60;85.80;;;;;;5053115;28;20591;-90
2022/05/25 06:36:25;;;;;;;18.10;5.90;;;15.60;85.80;;;;;;5053219;28;20274;-90
2022/05/25 06:38:57;;;;;;;12.27;5.23;;;15.60;86.00;;;;;;5048912;28;20227;-91
2022/05/25 06:41:25;;;;;;;16.80;5.63;;;15.70;86.50;;;;;;5054223;28;20295;-94
2022/05/25 06:43:53;;;;;;;20.23;7.13;;;15.70;85.90;;;;;;5054504;28;20209;-93
2022/05/25 06:46:23;;;;;;;17.60;5.57;;;15.80;85.00;;;;;;5054866;28;20259;-92
2022/05/25 06:48:53;;;;;;;10.50;4.93;;;15.80;85.10;;;;;;5052843;28;20271;-90
2022/05/25 06:51:23;;;;;;;10.90;4.30;;;15.90;84.40;;;;;;5054832;28;20254;-92
2022/05/25 06:53:50;;;;;;;14.33;6.43;;;15.90;84.00;;;;;;5054080;28;20278;-94
2022/05/25 06:56:22;;;;;;;12.50;5.77;;;16.00;83.50;;;;;;5055787;28;20228;-94
2022/05/25 06:58:59;;;;;;;9.77;4.33;;;16.10;83.00;;;;;;5056984;28;20220;-95
2022/05/25 07:01:26;;;;;;;12.47;5.33;;;16.10;82.60;;;;;;5054053;28;20212;-95
2022/05/25 07:03:56;;;;;;;11.87;4.50;;;16.20;82.60;;;;;;5058417;28;20684;-94
2022/05/25 07:06:25;;;;;;;8.60;4.10;;;16.20;82.80;;;;;;5056717;28;20286;-96
2022/05/25 07:08:52;;;;;;;11.70;4.00;;;16.30;81.00;;;;;;5056842;28;20201;-93
2022/05/25 07:11:23;;;;;;;11.00;4.00;;;16.30;81.20;;;;;;5055750;28;20196;-92
2022/05/25 07:13:51;;;;;;;12.60;4.60;;;16.40;80.90;;;;;;5054210;28;20202;-93
2022/05/25 07:16:23;;;;;;;12.27;5.03;;;16.50;81.10;;;;;;5054247;28;20274;-95
2022/05/25 07:18:51;;;;;;;6.90;3.43;;;16.50;79.80;;;;;;5056846;28;20294;-92
2022/05/25 07:21:21;;;;;;;9.40;3.27;;;16.60;79.00;;;;;;5046168;28;20193;-96
2022/05/25 07:23:51;;;;;;;9.20;3.53;;;16.70;77.70;;;;;;5060120;28;20204;-96
2022/05/25 07:26:19;;;;;;;13.43;4.00;;;16.70;76.10;;;;;;5053428;28;21030;-93
2022/05/25 07:28:48;;;;;;;7.20;3.23;;;16.80;76.60;;;;;;5032227;28;20245;-91
2022/05/25 07:31:22;;;;;;;9.47;3.97;;;16.90;75.50;;;;;;5032089;28;20612;-89
2022/05/25 07:33:56;;;;;;;8.03;3.20;;;16.90;73.10;;;;;;5042268;28;20233;-90
2022/05/25 07:36:26;;;;;;;13.47;3.77;;;16.90;73.20;;;;;;5052657;28;20324;-90
2022/05/25 07:38:57;;;;;;;15.83;3.53;;;17.00;73.80;;;;;;5055845;28;20912;-91
2022/05/25 07:41:25;;;;;;;8.90;4.37;;;17.10;73.70;;;;;;5054331;28;20197;-89
2022/05/25 07:43:57;;;;;;;9.83;3.30;;;17.10;73.50;;;;;;5055705;28;20202;-89
2022/05/25 07:46:26;;;;;;;14.83;4.20;;;17.20;72.90;;;;;;5054910;28;20578;-88
2022/05/25 07:48:54;;;;;;;20.23;6.30;;;17.30;72.40;;;;;;5053741;28;20295;-88
2022/05/25 07:51:23;;;;;;;12.37;4.37;;;17.30;71.40;;;;;;5054531;28;20303;-91
2022/05/25 07:53:58;;;;;;;11.53;4.10;;;17.40;71.80;;;;;;5053722;28;20222;-87
2022/05/25 07:56:28;;;;;;;14.30;4.67;;;17.40;71.40;;;;;;5052879;28;20232;-90
2022/05/25 07:58:56;;;;;;;13.10;4.83;;;17.50;71.20;;;;;;5052740;28;20211;-87
2022/05/25 08:06:53;;;;;;;14.70;4.37;;;17.70;71.70;;;;;;5054050;28;20214;-90
2022/05/25 08:09:23;;;;;;;17.63;5.93;;;17.80;71.80;;;;;;5052419;28;20208;-88
2022/05/25 08:11:51;;;;;;;18.67;5.77;;;17.80;71.00;;;;;;5052819;28;20212;-90
2022/05/25 08:14:18;;;;;;;10.67;3.80;;;17.90;71.00;;;;;;5054666;28;20216;-89
2022/05/25 08:16:45;;;;;;;12.03;4.07;;;18.00;70.20;;;;;;5055816;28;20295;-87
2022/05/25 08:19:14;;;;;;;10.90;4.17;;;18.10;69.40;;;;;;5057351;28;20270;-90
2022/05/25 08:21:41;;;;;;;8.17;2.83;;;18.20;69.70;;;;;;5060584;28;20207;-95
2022/05/25 08:24:48;;;;;;;16.97;4.47;;;18.20;70.10;;;;;;5068690;28;20203;-95
2022/05/25 08:27:21;;;;;;;5.23;2.23;;;18.30;68.90;;;;;;5067660;28;20241;-96
2022/05/25 08:29:48;;;;;;;10.63;3.40;;;18.40;69.80;;;;;;5060763;28;20217;-91
2022/05/25 08:32:16;;;;;;;9.13;3.17;;;18.50;69.80;;;;;;5054534;28;20291;-90
2022/05/25 08:34:45;;;;;;;13.03;3.27;;;18.50;68.70;;;;;;5054353;28;20203;-91
2022/05/25 08:37:12;;;;;;;11.43;3.57;;;18.60;67.20;;;;;;5053689;28;20264;-90
2022/05/25 08:39:39;;;;;;;7.77;2.50;;;18.60;67.60;;;;;;5057798;28;20262;-91
2022/05/25 08:42:13;;;;;;;7.93;2.83;;;18.70;67.60;;;;;;5054528;28;20239;-90
2022/05/25 08:44:42;;;;;;;11.13;4.00;;;18.70;66.40;;;;;;5052916;28;20289;-89
2022/05/25 08:47:13;;;;;;;10.40;2.83;;;18.80;67.00;;;;;;5052108;28;20294;-90
2022/05/25 08:49:43;;;;;;;9.63;3.20;;;18.80;66.60;;;;;;5056018;28;20214;-92
2022/05/25 08:52:34;;;;;;;11.00;3.53;;;18.90;66.90;;;;;;5054006;28;20248;-92
2022/05/25 08:55:06;;;;;;;16.30;5.57;;;19.00;65.60;;;;;;5051498;28;20303;-90
2022/05/25 08:57:47;;;;;;;11.50;2.87;;;19.10;65.60;;;;;;5055515;28;20344;-93
2022/05/25 09:00:19;;;;;;;10.90;3.63;;;19.20;64.90;;;;;;5056164;28;20215;-95
2022/05/25 09:02:54;;;;;;;11.80;3.50;;;19.30;65.00;;;;;;5050921;28;20211;-95
2022/05/25 09:06:04;;;;;;;14.83;4.70;;;19.40;65.00;;;;;;5061751;28;20200;-95
2022/05/25 09:08:46;;;;;;;13.20;5.07;;;19.50;64.10;;;;;;5053066;28;20288;-89
2022/05/25 09:11:17;;;;;;;16.70;5.53;;;19.60;64.50;;;;;;5050508;28;20299;-87
2022/05/25 09:13:52;;;;;;;11.63;3.83;;;19.60;64.80;;;;;;5051934;28;20275;-87
2022/05/25 09:16:28;;;;;;;14.10;4.93;;;19.70;64.40;;;;;;5053408;28;20291;-92
2022/05/25 09:21:58;;;;;;;10.77;3.93;;;19.90;63.10;;;;;;5055436;28;20251;-94
2022/05/25 09:24:30;;;;;;;10.57;3.93;;;20.00;63.10;;;;;;5042553;28;20232;-93
2022/05/25 09:27:01;;;;;;;11.43;3.33;;;20.00;62.40;;;;;;5058312;28;20205;-96
2022/05/25 09:29:30;;;;;;;7.13;2.40;;;20.10;62.10;;;;;;5056728;28;20732;-96
2022/05/25 09:32:13;;;;;;;9.80;3.23;;;20.10;62.50;;;;;;5057263;28;20208;-95
2022/05/25 09:35:04;;;;;;;9.87;3.60;;;20.20;62.40;;;;;;5056673;28;20200;-94
2022/05/25 09:37:41;;;;;;;6.33;2.03;;;20.20;61.00;;;;;;5055386;28;20238;-96
2022/05/25 09:40:19;;;;;;;7.20;2.90;;;20.30;60.80;;;;;;5056609;28;20652;-95
2022/05/25 09:42:50;;;;;;;11.23;3.23;;;20.30;60.80;;;;;;5057937;28;20275;-96
2022/05/25 09:45:18;;;;;;;11.77;3.90;;;20.30;60.70;;;;;;5071343;28;20214;-95
2022/05/25 09:47:49;;;;;;;10.63;3.73;;;20.30;60.40;;;;;;5069334;28;20251;-95
2022/05/25 09:50:57;;;;;;;12.83;3.57;;;20.30;59.20;;;;;;5067814;28;20204;-95
2022/05/25 09:53:41;;;;;;;12.43;3.90;;;20.20;59.00;;;;;;5063353;28;20680;-96
2022/05/25 09:56:27;;;;;;;7.57;2.40;;;20.20;60.10;;;;;;5062291;28;20235;-95
2022/05/25 09:59:06;;;;;;;9.63;3.60;;;20.30;60.40;;;;;;5061661;28;20250;-95
2022/05/25 10:01:42;;;;;;;7.63;2.73;;;20.30;58.80;;;;;;5060188;28;20247;-96
2022/05/25 10:07:37;;;;;;;9.23;2.77;;;20.50;57.80;;;;;;5061744;28;20200;-96
2022/05/25 10:13:27;;;;;;;8.77;2.77;;;20.60;58.10;;;;;;5057891;28;20264;-95
2022/05/25 10:15:54;;;;;;;8.33;2.57;;;20.70;58.60;;;;;;5048848;28;20605;-86
2022/05/25 10:18:36;;;;;;;7.60;3.07;;;20.80;58.80;;;;;;5047861;28;20322;-87
2022/05/25 10:21:04;;;;;;;10.03;3.40;;;20.90;57.40;;;;;;5050096;28;20345;-86
2022/05/25 10:23:31;;;;;;;10.00;2.80;;;21.00;58.30;;;;;;5048600;28;20898;-86
2022/05/25 10:26:08;;;;;;;7.67;2.77;;;21.10;58.00;;;;;;5050073;28;20320;-85
2022/05/25 10:28:47;;;;;;;8.63;3.10;;;21.10;57.40;;;;;;5049923;28;20235;-87
2022/05/25 10:37:16;;;;;;;10.53;3.80;;;21.20;57.30;;;;;;5011200;28;20224;-89
2022/05/25 10:39:46;;;;;;;11.40;3.50;;;21.20;57.70;;;;;;5051209;28;20258;-89
2022/05/25 10:42:18;;;;;;;7.17;2.70;;;21.20;57.90;;;;;;5049883;28;20206;-87
2022/05/25 10:44:58;;;;;;;5.73;2.20;;;21.30;56.90;;;;;;5050689;28;20200;-88
2022/05/25 10:48:00;;;;;;;6.70;2.70;;;21.30;56.20;;;;;;5050250;28;20192;-87
2022/05/25 10:50:31;;;;;;;10.00;3.67;;;21.40;56.10;;;;;;5041693;28;20208;-89
2022/05/25 10:53:07;;;;;;;6.87;2.33;;;21.40;56.50;;;;;;5047923;28;20228;-87
2022/05/25 10:55:42;;;;;;;10.33;3.37;;;21.50;56.20;;;;;;5051542;28;20195;-88
2022/05/25 10:58:35;;;;;;;7.47;2.53;;;21.60;56.00;;;;;;5054149;28;20259;-95
2022/05/25 11:01:24;;;;;;;10.70;2.93;;;21.70;54.80;;;;;;5037820;28;20206;-90
2022/05/25 11:04:08;;;;;;;7.20;2.70;;;21.80;54.60;;;;;;5033606;28;20243;-88
2022/05/25 11:06:50;;;;;;;7.27;2.50;;;21.80;54.40;;;;;;5034171;28;20211;-87
2022/05/25 11:09:44;;;;;;;8.43;3.17;;;21.80;54.50;;;;;;5037810;28;20619;-88
2022/05/25 11:12:24;;;;;;;7.07;2.30;;;21.80;54.10;;;;;;5052486;28;20661;-88
2022/05/25 11:15:02;;;;;;;5.37;1.80;;;21.80;53.30;;;;;;5053541;28;20234;-88
2022/05/25 11:17:42;;;;;;;7.20;2.03;;;21.80;54.10;;;;;;5053050;28;20329;-88
2022/05/25 11:20:18;;;;;;;4.73;1.87;;;21.80;53.30;;;;;;5053315;28;20243;-89
2022/05/25 11:23:03;;;;;;;7.60;2.57;;;21.80;53.20;;;;;;5053365;28;20261;-89
2022/05/25 11:25:40;;;;;;;6.20;2.43;;;21.90;53.60;;;;;;5053069;28;20208;-91
2022/05/25 11:28:21;;;;;;;6.47;2.23;;;21.90;53.50;;;;;;5056122;28;20220;-94
2022/05/25 11:31:16;;;;;;;8.30;2.37;;;21.90;53.30;;;;;;5056646;28;20200;-95
2022/05/25 11:34:27;;;;;;;7.20;2.03;;;22.00;53.80;;;;;;5058331;28;20196;-96
2022/05/25 11:37:17;;;;;;;6.83;2.00;;;22.00;52.80;;;;;;4961649;28;20210;-94
2022/05/25 11:40:24;;;;;;;4.53;1.80;;;22.00;52.70;;;;;;5047377;28;20263;-95
2022/05/25 11:43:07;;;;;;;9.33;3.43;;;22.20;52.90;;;;;;5057341;28;20260;-95
2022/05/25 11:45:50;;;;;;;5.67;1.53;;;22.20;52.60;;;;;;5055328;28;20196;-92
2022/05/25 11:48:35;;;;;;;5.73;2.43;;;22.20;52.70;;;;;;5060526;28;20211;-94
2022/05/25 11:51:22;;;;;;;7.40;2.03;;;22.20;52.20;;;;;;5054977;28;20204;-94
2022/05/25 11:57:09;;;;;;;6.03;2.47;;;22.30;53.10;;;;;;5040469;28;20273;-91
2022/05/25 11:59:56;;;;;;;6.07;2.17;;;22.30;52.60;;;;;;5052853;28;20217;-94
2022/05/25 12:02:51;;;;;;;7.20;2.23;;;22.20;51.80;;;;;;5053725;28;20204;-95
2022/05/25 12:05:27;;;;;;;6.10;2.30;;;22.20;52.30;;;;;;5050399;28;20262;-95
2022/05/25 12:08:26;;;;;;;7.57;1.93;;;22.20;52.10;;;;;;5054696;28;20243;-94
2022/05/25 12:11:06;;;;;;;7.13;2.27;;;22.10;51.90;;;;;;5053880;28;20212;-95
2022/05/25 12:13:41;;;;;;;7.47;1.83;;;22.00;52.40;;;;;;5052861;28;20259;-92
2022/05/25 12:16:16;;;;;;;9.40;2.63;;;21.90;52.20;;;;;;5054272;28;20230;-94
2022/05/25 12:18:52;;;;;;;5.20;2.10;;;21.80;52.50;;;;;;5053267;28;20230;-93
2022/05/25 12:21:37;;;;;;;9.43;2.17;;;21.80;52.90;;;;;;5053666;28;20211;-92
2022/05/25 12:24:27;;;;;;;7.17;2.17;;;21.80;52.90;;;;;;5058432;28;20557;-96
2022/05/25 12:26:59;;;;;;;7.00;2.20;;;21.70;52.20;;;;;;5059906;28;20273;-95
2022/05/25 12:29:34;;;;;;;5.27;1.97;;;21.70;52.90;;;;;;5058842;28;20208;-95
2022/05/25 12:32:02;;;;;;;5.37;1.77;;;21.70;53.30;;;;;;5058099;28;20215;-93
2022/05/25 12:34:35;;;;;;;6.13;2.03;;;21.70;54.00;;;;;;5057689;28;20200;-92
2022/05/25 12:37:05;;;;;;;9.73;2.97;;;21.70;52.90;;;;;;5056349;28;20269;-94
2022/05/25 12:40:03;;;;;;;11.07;2.97;;;21.70;53.30;;;;;;5057515;28;20290;-94
2022/05/25 12:42:44;;;;;;;8.83;2.20;;;21.70;52.50;;;;;;5009645;28;20210;-94
2022/05/25 12:48:49;;;;;;;127.30;27.03;;;21.70;53.40;;;;;;5040073;28;20203;-93
2022/05/25 12:51:48;;;;;;;31.00;5.60;;;21.70;53.40;;;;;;5041246;28;20300;-95
2022/05/25 12:54:24;;;;;;;9.07;2.37;;;21.70;52.90;;;;;;5038894;28;20278;-94
2022/05/25 12:56:59;;;;;;;5.87;1.80;;;21.70;52.90;;;;;;5058508;28;21005;-92
2022/05/25 12:59:34;;;;;;;17.30;4.87;;;21.70;52.70;;;;;;5052788;28;20279;-95
2022/05/25 13:02:24;;;;;;;8.83;2.93;;;21.70;52.60;;;;;;5050992;28;20264;-94
2022/05/25 13:04:59;;;;;;;406.70;82.90;;;21.70;52.90;;;;;;5057784;28;20204;-95
2022/05/25 13:07:45;;;;;;;13.80;3.93;;;21.70;53.80;;;;;;5059297;28;20632;-94
2022/05/25 13:10:23;;;;;;;8.43;3.07;;;21.70;53.50;;;;;;5062764;28;20627;-96
2022/05/25 13:13:25;;;;;;;5.37;1.77;;;21.70;53.40;;;;;;5047432;28;20214;-93
2022/05/25 13:15:53;;;;;;;9.53;2.60;;;21.70;53.20;;;;;;5046244;28;20241;-95
2022/05/25 13:18:49;;;;;;;6.23;1.83;;;21.60;53.50;;;;;;5057038;28;20224;-95
2022/05/25 13:25:08;;;;;;;10.53;2.23;;;21.60;53.70;;;;;;5044964;28;20207;-96
2022/05/25 13:28:14;;;;;;;629.07;113.70;;;21.60;53.60;;;;;;5057861;28;20668;-92
2022/05/25 13:30:56;;;;;;;21.70;8.50;;;21.50;53.20;;;;;;5056143;28;20297;-94
2022/05/25 13:33:27;;;;;;;8.23;2.63;;;21.50;53.50;;;;;;5052786;28;20209;-93
2022/05/25 13:36:07;;;;;;;10.80;3.63;;;21.50;53.70;;;;;;5055010;28;20208;-93
2022/05/25 13:38:39;;;;;;;7.03;2.53;;;21.40;53.30;;;;;;5055742;28;20251;-94
2022/05/25 13:41:17;;;;;;;5.37;2.17;;;21.40;53.30;;;;;;5056052;28;20239;-93
2022/05/25 13:44:06;;;;;;;9.00;1.90;;;21.40;53.80;;;;;;5046908;28;20215;-94
2022/05/25 13:46:40;;;;;;;6.17;1.87;;;21.40;53.30;;;;;;5058544;28;20240;-91
2022/05/25 13:49:19;;;;;;;12.37;3.23;;;21.40;53.50;;;;;;5057594;28;20211;-95
2022/05/25 13:51:52;;;;;;;6.37;2.30;;;21.30;53.50;;;;;;5057067;28;20196;-93
2022/05/25 13:54:32;;;;;;;8.37;3.07;;;21.30;53.30;;;;;;5060407;28;20243;-95
2022/05/25 13:57:02;;;;;;;10.80;2.93;;;21.30;53.10;;;;;;5037805;28;20204;-94
2022/05/25 13:59:36;;;;;;;10.07;2.87;;;21.30;53.10;;;;;;5040675;28;20229;-93
2022/05/25 14:02:26;;;;;;;7.23;2.43;;;21.20;52.60;;;;;;5055032;28;20218;-95
2022/05/25 14:05:01;;;;;;;6.43;1.83;;;21.20;53.30;;;;;;5058590;28;20209;-95
2022/05/25 14:07:37;;;;;;;7.60;2.67;;;21.20;53.60;;;;;;5057824;28;20565;-94